sensor_id;sensor_type;location;lat;lon;timestamp;pressure;altitude;pressure_sealevel;temperature
24639;BMP180;1641;51.306;12.384;2023-05-10T00:01:53;99567.00;;;13.00
24639;BMP180;1641;51.306;12.384;2023-05-10T00:04:19;99555.00;;;13.00
24639;BMP180;1641;51.306;12.384;2023-05-10T00:06:44;99553.00;;;12.80
24639;BMP180;1641;51.306;12.384;2023-05-10T00:09:10;99560.00;;;13.30
24639;BMP180;1641;51.306;12.384;2023-05-10T00:11:35;99553.00;;;12.90
24639;BMP180;1641;51.306;12.384;2023-05-10T00:14:00;99540.00;;;12.80
24639;BMP180;1641;51.306;12.384;2023-05-10T00:16:25;99540.00;;;12.70
24639;BMP180;1641;51.306;12.384;2023-05-10T00:18:50;99542.00;;;13.00
24639;BMP180;1641;51.306;12.384;2023-05-10T00:21:16;99548.00;;;13.00
24639;BMP180;1641;51.306;12.384;2023-05-10T00:23:41;99542.00;;;13.00
24639;BMP180;1641;51.306;12.384;2023-05-10T00:26:06;99535.00;;;13.20
24639;BMP180;1641;51.306;12.384;2023-05-10T00:28:31;99534.00;;;12.80
24639;BMP180;1641;51.306;12.384;2023-05-10T00:30:57;99530.00;;;12.90
24639;BMP180;1641;51.306;12.384;2023-05-10T00:33:22;99534.00;;;13.00
24639;BMP180;1641;51.306;12.384;2023-05-10T00:35:47;99529.00;;;13.10
24639;BMP180;1641;51.306;12.384;2023-05-10T00:38:12;99532.00;;;13.40
24639;BMP180;1641;51.306;12.384;2023-05-10T00:40:38;99541.00;;;13.50
24639;BMP180;1641;51.306;12.384;2023-05-10T00:43:03;99514.00;;;13.60
24639;BMP180;1641;51.306;12.384;2023-05-10T00:45:31;99525.00;;;13.60
24639;BMP180;1641;51.306;12.384;2023-05-10T00:47:57;99535.00;;;13.70
24639;BMP180;1641;51.306;12.384;2023-05-10T00:50:24;99522.00;;;13.50
24639;BMP180;1641;51.306;12.384;2023-05-10T00:52:50;99522.00;;;13.50
24639;BMP180;1641;51.306;12.384;2023-05-10T00:55:16;99528.00;;;13.50
24639;BMP180;1641;51.306;12.384;2023-05-10T00:57:42;99520.00;;;13.70
24639;BMP180;1641;51.306;12.384;2023-05-10T01:00:08;99506.00;;;13.60
24639;BMP180;1641;51.306;12.384;2023-05-10T01:02:37;99527.00;;;13.60
24639;BMP180;1641;51.306;12.384;2023-05-10T01:05:03;99514.00;;;13.60
24639;BMP180;1641;51.306;12.384;2023-05-10T01:07:29;99522.00;;;13.70
24639;BMP180;1641;51.306;12.384;2023-05-10T01:09:54;99520.00;;;13.30
24639;BMP180;1641;51.306;12.384;2023-05-10T01:12:20;99512.00;;;13.40
24639;BMP180;1641;51.306;12.384;2023-05-10T01:14:46;99515.00;;;13.30
24639;BMP180;1641;51.306;12.384;2023-05-10T01:17:12;99513.00;;;12.90
24639;BMP180;1641;51.306;12.384;2023-05-10T01:19:37;99512.00;;;13.20
24639;BMP180;1641;51.306;12.384;2023-05-10T01:22:22;99506.00;;;13.30
24639;BMP180;1641;51.306;12.384;2023-05-10T01:28:06;99503.00;;;13.40
24639;BMP180;1641;51.306;12.384;2023-05-10T01:33:39;99495.00;;;13.40
24639;BMP180;1641;51.306;12.384;2023-05-10T01:36:21;99505.00;;;13.40
24639;BMP180;1641;51.306;12.384;2023-05-10T01:39:16;99501.00;;;13.30
24639;BMP180;1641;51.306;12.384;2023-05-10T01:41:51;99483.00;;;13.50
24639;BMP180;1641;51.306;12.384;2023-05-10T01:44:25;99492.00;;;13.40
24639;BMP180;1641;51.306;12.384;2023-05-10T01:47:10;99477.00;;;13.60
24639;BMP180;1641;51.306;12.384;2023-05-10T01:49:50;99488.00;;;13.40
24639;BMP180;1641;51.306;12.384;2023-05-10T01:52:18;99496.00;;;12.90
24639;BMP180;1641;51.306;12.384;2023-05-10T01:54:54;99483.00;;;13.40
24639;BMP180;1641;51.306;12.384;2023-05-10T01:57:22;99491.00;;;13.30
24639;BMP180;1641;51.306;12.384;2023-05-10T01:59:52;99487.00;;;13.40
24639;BMP180;1641;51.306;12.384;2023-05-10T02:02:20;99480.00;;;13.40
24639;BMP180;1641;51.306;12.384;2023-05-10T02:04:46;99481.00;;;13.30
24639;BMP180;1641;51.306;12.384;2023-05-10T02:07:13;99475.00;;;13.20
24639;BMP180;1641;51.306;12.384;2023-05-10T02:09:40;99470.00;;;13.00
24639;BMP180;1641;51.306;12.384;2023-05-10T02:12:07;99487.00;;;13.00
24639;BMP180;1641;51.306;12.384;2023-05-10T02:14:35;99491.00;;;13.20
24639;BMP180;1641;51.306;12.384;2023-05-10T02:17:02;99485.00;;;13.40
24639;BMP180;1641;51.306;12.384;2023-05-10T02:19:28;99464.00;;;13.10
24639;BMP180;1641;51.306;12.384;2023-05-10T02:21:55;99473.00;;;13.10
24639;BMP180;1641;51.306;12.384;2023-05-10T02:24:23;99488.00;;;12.90
24639;BMP180;1641;51.306;12.384;2023-05-10T02:26:51;99484.00;;;13.20
24639;BMP180;1641;51.306;12.384;2023-05-10T02:29:18;99468.00;;;13.10
24639;BMP180;1641;51.306;12.384;2023-05-10T02:31:45;99476.00;;;13.30
24639;BMP180;1641;51.306;12.384;2023-05-10T02:34:11;99476.00;;;13.20
24639;BMP180;1641;51.306;12.384;2023-05-10T02:36:38;99488.00;;;13.30
24639;BMP180;1641;51.306;12.384;2023-05-10T02:39:04;99487.00;;;13.10
24639;BMP180;1641;51.306;12.384;2023-05-10T02:41:35;99483.00;;;13.20
24639;BMP180;1641;51.306;12.384;2023-05-10T02:44:02;99482.00;;;13.30
24639;BMP180;1641;51.306;12.384;2023-05-10T02:46:28;99474.00;;;13.20
24639;BMP180;1641;51.306;12.384;2023-05-10T02:48:53;99474.00;;;13.20
24639;BMP180;1641;51.306;12.384;2023-05-10T02:51:20;99476.00;;;13.20
24639;BMP180;1641;51.306;12.384;2023-05-10T02:53:48;99481.00;;;13.10
24639;BMP180;1641;51.306;12.384;2023-05-10T02:56:21;99468.00;;;13.30
24639;BMP180;1641;51.306;12.384;2023-05-10T02:58:48;99445.00;;;13.10
24639;BMP180;1641;51.306;12.384;2023-05-10T03:01:13;99468.00;;;13.10
24639;BMP180;1641;51.306;12.384;2023-05-10T03:03:39;99432.00;;;13.10
24639;BMP180;1641;51.306;12.384;2023-05-10T03:06:04;99468.00;;;13.10
24639;BMP180;1641;51.306;12.384;2023-05-10T03:08:29;99473.00;;;12.80
24639;BMP180;1641;51.306;12.384;2023-05-10T03:11:21;99446.00;;;12.90
24639;BMP180;1641;51.306;12.384;2023-05-10T03:16:25;99477.00;;;12.70
24639;BMP180;1641;51.306;12.384;2023-05-10T03:18:58;99473.00;;;13.00
24639;BMP180;1641;51.306;12.384;2023-05-10T03:21:28;99470.00;;;13.20
24639;BMP180;1641;51.306;12.384;2023-05-10T03:23:59;99469.00;;;13.10
24639;BMP180;1641;51.306;12.384;2023-05-10T03:26:28;99468.00;;;13.00
24639;BMP180;1641;51.306;12.384;2023-05-10T03:28:55;99477.00;;;12.80
24639;BMP180;1641;51.306;12.384;2023-05-10T03:31:24;99479.00;;;12.70
24639;BMP180;1641;51.306;12.384;2023-05-10T03:33:50;99484.00;;;13.00
24639;BMP180;1641;51.306;12.384;2023-05-10T03:36:17;99473.00;;;13.00
24639;BMP180;1641;51.306;12.384;2023-05-10T03:38:42;99482.00;;;13.00
24639;BMP180;1641;51.306;12.384;2023-05-10T03:41:07;99481.00;;;12.90
24639;BMP180;1641;51.306;12.384;2023-05-10T03:43:33;99479.00;;;13.10
24639;BMP180;1641;51.306;12.384;2023-05-10T03:45:58;99478.00;;;12.90
24639;BMP180;1641;51.306;12.384;2023-05-10T03:48:23;99486.00;;;13.00
24639;BMP180;1641;51.306;12.384;2023-05-10T03:50:49;99492.00;;;13.00
24639;BMP180;1641;51.306;12.384;2023-05-10T03:53:14;99485.00;;;13.10
24639;BMP180;1641;51.306;12.384;2023-05-10T03:55:40;99472.00;;;13.00
24639;BMP180;1641;51.306;12.384;2023-05-10T03:58:05;99484.00;;;13.00
24639;BMP180;1641;51.306;12.384;2023-05-10T04:00:30;99477.00;;;12.60
24639;BMP180;1641;51.306;12.384;2023-05-10T04:02:56;99478.00;;;12.80
24639;BMP180;1641;51.306;12.384;2023-05-10T04:05:21;99476.00;;;13.00
24639;BMP180;1641;51.306;12.384;2023-05-10T04:07:47;99468.00;;;13.10
24639;BMP180;1641;51.306;12.384;2023-05-10T04:10:14;99472.00;;;12.90
24639;BMP180;1641;51.306;12.384;2023-05-10T04:12:41;99457.00;;;13.00
24639;BMP180;1641;51.306;12.384;2023-05-10T04:15:07;99475.00;;;13.20
24639;BMP180;1641;51.306;12.384;2023-05-10T04:17:32;99465.00;;;13.00
24639;BMP180;1641;51.306;12.384;2023-05-10T04:19:57;99471.00;;;13.20
24639;BMP180;1641;51.306;12.384;2023-05-10T04:22:22;99465.00;;;13.30
24639;BMP180;1641;51.306;12.384;2023-05-10T04:24:48;99473.00;;;13.60
24639;BMP180;1641;51.306;12.384;2023-05-10T04:27:13;99439.00;;;13.20
24639;BMP180;1641;51.306;12.384;2023-05-10T04:29:38;99471.00;;;13.10
24639;BMP180;1641;51.306;12.384;2023-05-10T04:32:04;99418.00;;;13.10
24639;BMP180;1641;51.306;12.384;2023-05-10T04:34:29;99481.00;;;13.20
24639;BMP180;1641;51.306;12.384;2023-05-10T04:36:54;99484.00;;;13.60
24639;BMP180;1641;51.306;12.384;2023-05-10T04:39:20;99425.00;;;13.90
24639;BMP180;1641;51.306;12.384;2023-05-10T04:41:45;99481.00;;;14.00
24639;BMP180;1641;51.306;12.384;2023-05-10T04:44:10;99488.00;;;14.20
24639;BMP180;1641;51.306;12.384;2023-05-10T04:46:35;99478.00;;;14.50
24639;BMP180;1641;51.306;12.384;2023-05-10T04:49:01;99473.00;;;14.30
24639;BMP180;1641;51.306;12.384;2023-05-10T04:51:26;99484.00;;;14.50
24639;BMP180;1641;51.306;12.384;2023-05-10T04:53:51;99471.00;;;14.60
24639;BMP180;1641;51.306;12.384;2023-05-10T04:56:17;99482.00;;;14.80
24639;BMP180;1641;51.306;12.384;2023-05-10T04:58:42;99484.00;;;14.50
24639;BMP180;1641;51.306;12.384;2023-05-10T05:01:08;99482.00;;;14.50
24639;BMP180;1641;51.306;12.384;2023-05-10T05:03:33;99479.00;;;15.10
24639;BMP180;1641;51.306;12.384;2023-05-10T05:05:58;99488.00;;;15.10
24639;BMP180;1641;51.306;12.384;2023-05-10T05:08:24;99477.00;;;15.20
24639;BMP180;1641;51.306;12.384;2023-05-10T05:10:49;99480.00;;;15.50
24639;BMP180;1641;51.306;12.384;2023-05-10T05:13:15;99484.00;;;16.10
24639;BMP180;1641;51.306;12.384;2023-05-10T05:15:40;99489.00;;;15.60
24639;BMP180;1641;51.306;12.384;2023-05-10T05:18:05;99488.00;;;15.70
24639;BMP180;1641;51.306;12.384;2023-05-10T05:20:34;99485.00;;;15.60
24639;BMP180;1641;51.306;12.384;2023-05-10T05:23:00;99481.00;;;15.80
24639;BMP180;1641;51.306;12.384;2023-05-10T05:25:25;99433.00;;;15.90
24639;BMP180;1641;51.306;12.384;2023-05-10T05:27:50;99480.00;;;15.70
24639;BMP180;1641;51.306;12.384;2023-05-10T05:30:16;99490.00;;;16.20
24639;BMP180;1641;51.306;12.384;2023-05-10T05:32:41;99481.00;;;16.80
24639;BMP180;1641;51.306;12.384;2023-05-10T05:35:07;99486.00;;;16.90
24639;BMP180;1641;51.306;12.384;2023-05-10T05:37:32;99484.00;;;16.80
24639;BMP180;1641;51.306;12.384;2023-05-10T05:39:58;99487.00;;;16.50
24639;BMP180;1641;51.306;12.384;2023-05-10T05:42:23;99485.00;;;16.40
24639;BMP180;1641;51.306;12.384;2023-05-10T05:44:51;99491.00;;;17.00
24639;BMP180;1641;51.306;12.384;2023-05-10T05:47:17;99490.00;;;17.30
24639;BMP180;1641;51.306;12.384;2023-05-10T05:49:42;99479.00;;;16.10
24639;BMP180;1641;51.306;12.384;2023-05-10T05:52:10;99496.00;;;16.20
24639;BMP180;1641;51.306;12.384;2023-05-10T05:54:41;99494.00;;;15.90
24639;BMP180;1641;51.306;12.384;2023-05-10T05:57:07;99497.00;;;16.30
24639;BMP180;1641;51.306;12.384;2023-05-10T05:59:32;99494.00;;;15.90
24639;BMP180;1641;51.306;12.384;2023-05-10T06:01:57;99474.00;;;16.20
24639;BMP180;1641;51.306;12.384;2023-05-10T06:04:26;99497.00;;;16.00
24639;BMP180;1641;51.306;12.384;2023-05-10T06:06:52;99496.00;;;16.80
24639;BMP180;1641;51.306;12.384;2023-05-10T06:09:17;99504.00;;;17.30
24639;BMP180;1641;51.306;12.384;2023-05-10T06:11:42;99506.00;;;17.40
24639;BMP180;1641;51.306;12.384;2023-05-10T06:14:08;99505.00;;;17.10
24639;BMP180;1641;51.306;12.384;2023-05-10T06:16:34;99506.00;;;16.60
24639;BMP180;1641;51.306;12.384;2023-05-10T06:18:59;99508.00;;;16.90
24639;BMP180;1641;51.306;12.384;2023-05-10T06:21:25;99514.00;;;17.00
24639;BMP180;1641;51.306;12.384;2023-05-10T06:23:53;99517.00;;;16.90
24639;BMP180;1641;51.306;12.384;2023-05-10T06:26:18;99508.00;;;17.00
24639;BMP180;1641;51.306;12.384;2023-05-10T06:28:44;99511.00;;;17.10
24639;BMP180;1641;51.306;12.384;2023-05-10T06:31:12;99486.00;;;17.80
24639;BMP180;1641;51.306;12.384;2023-05-10T06:33:37;99491.00;;;18.50
24639;BMP180;1641;51.306;12.384;2023-05-10T06:36:03;99512.00;;;19.30
24639;BMP180;1641;51.306;12.384;2023-05-10T06:38:28;99527.00;;;20.60
24639;BMP180;1641;51.306;12.384;2023-05-10T06:40:54;99526.00;;;21.70
24639;BMP180;1641;51.306;12.384;2023-05-10T06:43:19;99527.00;;;22.90
24639;BMP180;1641;51.306;12.384;2023-05-10T06:45:44;99527.00;;;23.50
24639;BMP180;1641;51.306;12.384;2023-05-10T06:48:10;99515.00;;;23.70
24639;BMP180;1641;51.306;12.384;2023-05-10T06:50:35;99536.00;;;23.00
24639;BMP180;1641;51.306;12.384;2023-05-10T06:53:01;99531.00;;;22.90
24639;BMP180;1641;51.306;12.384;2023-05-10T06:55:27;99515.00;;;23.10
24639;BMP180;1641;51.306;12.384;2023-05-10T06:57:53;99546.00;;;22.90
24639;BMP180;1641;51.306;12.384;2023-05-10T07:00:19;99533.00;;;23.20
24639;BMP180;1641;51.306;12.384;2023-05-10T07:02:44;99519.00;;;22.80
24639;BMP180;1641;51.306;12.384;2023-05-10T07:05:13;99548.00;;;23.40
24639;BMP180;1641;51.306;12.384;2023-05-10T07:07:39;99543.00;;;23.40
24639;BMP180;1641;51.306;12.384;2023-05-10T07:10:05;99546.00;;;23.10
24639;BMP180;1641;51.306;12.384;2023-05-10T07:12:30;99547.00;;;22.50
24639;BMP180;1641;51.306;12.384;2023-05-10T07:14:56;99562.00;;;22.60
24639;BMP180;1641;51.306;12.384;2023-05-10T07:17:21;99553.00;;;23.30
24639;BMP180;1641;51.306;12.384;2023-05-10T07:19:47;99551.00;;;24.00
24639;BMP180;1641;51.306;12.384;2023-05-10T07:22:12;99556.00;;;24.60
24639;BMP180;1641;51.306;12.384;2023-05-10T07:24:38;99556.00;;;24.80
24639;BMP180;1641;51.306;12.384;2023-05-10T07:27:03;99552.00;;;24.00
24639;BMP180;1641;51.306;12.384;2023-05-10T07:29:29;99568.00;;;23.50
24639;BMP180;1641;51.306;12.384;2023-05-10T07:31:54;99564.00;;;24.20
24639;BMP180;1641;51.306;12.384;2023-05-10T07:34:19;99555.00;;;24.60
24639;BMP180;1641;51.306;12.384;2023-05-10T07:36:45;99563.00;;;25.30
24639;BMP180;1641;51.306;12.384;2023-05-10T07:39:10;99569.00;;;23.60
24639;BMP180;1641;51.306;12.384;2023-05-10T07:41:36;99574.00;;;23.30
24639;BMP180;1641;51.306;12.384;2023-05-10T07:44:02;99574.00;;;22.70
24639;BMP180;1641;51.306;12.384;2023-05-10T07:46:28;99582.00;;;23.00
24639;BMP180;1641;51.306;12.384;2023-05-10T07:48:54;99579.00;;;23.20
24639;BMP180;1641;51.306;12.384;2023-05-10T07:51:19;99561.00;;;22.40
24639;BMP180;1641;51.306;12.384;2023-05-10T07:53:44;99578.00;;;22.00
24639;BMP180;1641;51.306;12.384;2023-05-10T07:58:48;99578.00;;;21.50
24639;BMP180;1641;51.306;12.384;2023-05-10T08:01:13;99589.00;;;20.80
24639;BMP180;1641;51.306;12.384;2023-05-10T08:03:42;99597.00;;;20.40
24639;BMP180;1641;51.306;12.384;2023-05-10T08:06:14;99585.00;;;20.40
24639;BMP180;1641;51.306;12.384;2023-05-10T08:08:40;99596.00;;;20.60
24639;BMP180;1641;51.306;12.384;2023-05-10T08:11:09;99608.00;;;21.10
24639;BMP180;1641;51.306;12.384;2023-05-10T08:13:40;99591.00;;;21.70
24639;BMP180;1641;51.306;12.384;2023-05-10T08:16:09;99586.00;;;21.30
24639;BMP180;1641;51.306;12.384;2023-05-10T08:18:38;99604.00;;;21.30
24639;BMP180;1641;51.306;12.384;2023-05-10T08:21:09;99613.00;;;21.20
24639;BMP180;1641;51.306;12.384;2023-05-10T08:23:42;99616.00;;;21.20
24639;BMP180;1641;51.306;12.384;2023-05-10T08:26:12;99610.00;;;20.90
24639;BMP180;1641;51.306;12.384;2023-05-10T08:28:53;99615.00;;;20.60
24639;BMP180;1641;51.306;12.384;2023-05-10T08:31:18;99606.00;;;20.40
24639;BMP180;1641;51.306;12.384;2023-05-10T08:33:47;99632.00;;;20.40
24639;BMP180;1641;51.306;12.384;2023-05-10T08:36:15;99619.00;;;19.70
24639;BMP180;1641;51.306;12.384;2023-05-10T08:38:50;99634.00;;;19.80
24639;BMP180;1641;51.306;12.384;2023-05-10T08:41:19;99636.00;;;19.60
24639;BMP180;1641;51.306;12.384;2023-05-10T08:43:46;99625.00;;;19.30
24639;BMP180;1641;51.306;12.384;2023-05-10T08:46:15;99645.00;;;19.40
24639;BMP180;1641;51.306;12.384;2023-05-10T08:48:43;99631.00;;;19.40
24639;BMP180;1641;51.306;12.384;2023-05-10T08:51:18;99649.00;;;19.50
24639;BMP180;1641;51.306;12.384;2023-05-10T08:53:45;99646.00;;;19.50
24639;BMP180;1641;51.306;12.384;2023-05-10T08:56:10;99643.00;;;18.90
24639;BMP180;1641;51.306;12.384;2023-05-10T08:58:36;99621.00;;;19.00
24639;BMP180;1641;51.306;12.384;2023-05-10T09:01:03;99640.00;;;18.60
24639;BMP180;1641;51.306;12.384;2023-05-10T09:03:29;99656.00;;;17.70
24639;BMP180;1641;51.306;12.384;2023-05-10T09:05:55;99654.00;;;17.50
24639;BMP180;1641;51.306;12.384;2023-05-10T09:08:24;99661.00;;;17.90
24639;BMP180;1641;51.306;12.384;2023-05-10T09:10:54;99648.00;;;17.60
24639;BMP180;1641;51.306;12.384;2023-05-10T09:13:21;99660.00;;;17.00
24639;BMP180;1641;51.306;12.384;2023-05-10T09:15:47;99666.00;;;17.20
24639;BMP180;1641;51.306;12.384;2023-05-10T09:18:13;99668.00;;;17.10
24639;BMP180;1641;51.306;12.384;2023-05-10T09:20:38;99656.00;;;17.10
24639;BMP180;1641;51.306;12.384;2023-05-10T09:23:03;99675.00;;;16.90
24639;BMP180;1641;51.306;12.384;2023-05-10T09:25:28;99677.00;;;16.40
24639;BMP180;1641;51.306;12.384;2023-05-10T09:27:54;99688.00;;;16.60
24639;BMP180;1641;51.306;12.384;2023-05-10T09:30:28;99682.00;;;16.80
24639;BMP180;1641;51.306;12.384;2023-05-10T09:32:54;99684.00;;;16.80
24639;BMP180;1641;51.306;12.384;2023-05-10T09:35:21;99683.00;;;16.80
24639;BMP180;1641;51.306;12.384;2023-05-10T09:37:50;99688.00;;;16.80
24639;BMP180;1641;51.306;12.384;2023-05-10T09:40:22;99689.00;;;16.60
24639;BMP180;1641;51.306;12.384;2023-05-10T09:42:59;99689.00;;;16.90
24639;BMP180;1641;51.306;12.384;2023-05-10T09:45:27;99698.00;;;17.20
24639;BMP180;1641;51.306;12.384;2023-05-10T09:47:53;99693.00;;;16.80
24639;BMP180;1641;51.306;12.384;2023-05-10T09:50:19;99698.00;;;17.10
24639;BMP180;1641;51.306;12.384;2023-05-10T09:52:52;99701.00;;;17.10
24639;BMP180;1641;51.306;12.384;2023-05-10T09:55:19;99685.00;;;17.10
24639;BMP180;1641;51.306;12.384;2023-05-10T09:57:46;99701.00;;;16.70
24639;BMP180;1641;51.306;12.384;2023-05-10T10:00:17;99706.00;;;16.40
24639;BMP180;1641;51.306;12.384;2023-05-10T10:02:43;99699.00;;;16.40
24639;BMP180;1641;51.306;12.384;2023-05-10T10:05:11;99699.00;;;16.50
24639;BMP180;1641;51.306;12.384;2023-05-10T10:07:36;99706.00;;;16.70
24639;BMP180;1641;51.306;12.384;2023-05-10T10:10:02;99701.00;;;16.50
24639;BMP180;1641;51.306;12.384;2023-05-10T10:12:28;99703.00;;;16.70
24639;BMP180;1641;51.306;12.384;2023-05-10T10:14:55;99711.00;;;16.80
24639;BMP180;1641;51.306;12.384;2023-05-10T10:17:21;99709.00;;;16.70
24639;BMP180;1641;51.306;12.384;2023-05-10T10:19:48;99681.00;;;16.90
24639;BMP180;1641;51.306;12.384;2023-05-10T10:22:13;99708.00;;;16.70
24639;BMP180;1641;51.306;12.384;2023-05-10T10:24:38;99704.00;;;16.90
24639;BMP180;1641;51.306;12.384;2023-05-10T10:27:21;99707.00;;;16.90
24639;BMP180;1641;51.306;12.384;2023-05-10T10:29:57;99710.00;;;17.30
24639;BMP180;1641;51.306;12.384;2023-05-10T10:32:46;99709.00;;;17.40
24639;BMP180;1641;51.306;12.384;2023-05-10T10:35:14;99715.00;;;17.30
24639;BMP180;1641;51.306;12.384;2023-05-10T10:37:45;99707.00;;;17.30
24639;BMP180;1641;51.306;12.384;2023-05-10T10:40:24;99697.00;;;17.50
24639;BMP180;1641;51.306;12.384;2023-05-10T10:42:51;99667.00;;;17.40
24639;BMP180;1641;51.306;12.384;2023-05-10T10:45:16;99692.00;;;17.50
24639;BMP180;1641;51.306;12.384;2023-05-10T10:47:41;99708.00;;;17.30
24639;BMP180;1641;51.306;12.384;2023-05-10T10:50:08;99708.00;;;17.50
24639;BMP180;1641;51.306;12.384;2023-05-10T10:52:36;99716.00;;;17.80
24639;BMP180;1641;51.306;12.384;2023-05-10T10:55:16;99717.00;;;17.40
24639;BMP180;1641;51.306;12.384;2023-05-10T10:57:50;99718.00;;;17.30
24639;BMP180;1641;51.306;12.384;2023-05-10T11:00:35;99711.00;;;17.60
24639;BMP180;1641;51.306;12.384;2023-05-10T11:03:09;99716.00;;;17.20
24639;BMP180;1641;51.306;12.384;2023-05-10T11:10:50;99720.00;;;17.70
24639;BMP180;1641;51.306;12.384;2023-05-10T11:13:27;99719.00;;;17.30
24639;BMP180;1641;51.306;12.384;2023-05-10T11:15:53;99720.00;;;17.70
24639;BMP180;1641;51.306;12.384;2023-05-10T11:20:57;99728.00;;;18.00
24639;BMP180;1641;51.306;12.384;2023-05-10T11:23:23;99721.00;;;17.70
24639;BMP180;1641;51.306;12.384;2023-05-10T11:25:49;99728.00;;;17.70
24639;BMP180;1641;51.306;12.384;2023-05-10T11:28:17;99727.00;;;17.20
24639;BMP180;1641;51.306;12.384;2023-05-10T11:30:43;99732.00;;;17.40
24639;BMP180;1641;51.306;12.384;2023-05-10T11:33:11;99733.00;;;17.40
24639;BMP180;1641;51.306;12.384;2023-05-10T11:35:40;99717.00;;;17.30
24639;BMP180;1641;51.306;12.384;2023-05-10T11:38:07;99733.00;;;17.30
24639;BMP180;1641;51.306;12.384;2023-05-10T11:40:32;99736.00;;;17.60
24639;BMP180;1641;51.306;12.384;2023-05-10T11:42:57;99739.00;;;17.80
24639;BMP180;1641;51.306;12.384;2023-05-10T11:45:25;99732.00;;;17.50
24639;BMP180;1641;51.306;12.384;2023-05-10T11:47:51;99728.00;;;17.80
24639;BMP180;1641;51.306;12.384;2023-05-10T11:50:17;99733.00;;;18.30
24639;BMP180;1641;51.306;12.384;2023-05-10T11:52:42;99739.00;;;17.80
24639;BMP180;1641;51.306;12.384;2023-05-10T11:55:08;99735.00;;;17.50
24639;BMP180;1641;51.306;12.384;2023-05-10T11:57:34;99737.00;;;17.50
24639;BMP180;1641;51.306;12.384;2023-05-10T12:00:00;99744.00;;;17.30
24639;BMP180;1641;51.306;12.384;2023-05-10T12:02:25;99743.00;;;17.70
24639;BMP180;1641;51.306;12.384;2023-05-10T12:04:50;99743.00;;;18.20
24639;BMP180;1641;51.306;12.384;2023-05-10T12:07:16;99747.00;;;18.30
24639;BMP180;1641;51.306;12.384;2023-05-10T12:09:43;99755.00;;;17.80
24639;BMP180;1641;51.306;12.384;2023-05-10T12:12:09;99751.00;;;18.00
24639;BMP180;1641;51.306;12.384;2023-05-10T12:14:35;99753.00;;;18.50
24639;BMP180;1641;51.306;12.384;2023-05-10T12:17:00;99757.00;;;18.30
24639;BMP180;1641;51.306;12.384;2023-05-10T12:19:25;99755.00;;;17.50
24639;BMP180;1641;51.306;12.384;2023-05-10T12:21:51;99757.00;;;17.70
24639;BMP180;1641;51.306;12.384;2023-05-10T12:24:16;99752.00;;;17.40
24639;BMP180;1641;51.306;12.384;2023-05-10T12:26:43;99757.00;;;17.30
24639;BMP180;1641;51.306;12.384;2023-05-10T12:29:14;99759.00;;;18.10
24639;BMP180;1641;51.306;12.384;2023-05-10T12:34:33;99760.00;;;17.80
24639;BMP180;1641;51.306;12.384;2023-05-10T12:36:59;99754.00;;;17.80
24639;BMP180;1641;51.306;12.384;2023-05-10T12:39:25;99765.00;;;17.90
24639;BMP180;1641;51.306;12.384;2023-05-10T12:41:51;99765.00;;;18.60
24639;BMP180;1641;51.306;12.384;2023-05-10T12:44:16;99757.00;;;19.00
24639;BMP180;1641;51.306;12.384;2023-05-10T12:46:47;99761.00;;;19.20
24639;BMP180;1641;51.306;12.384;2023-05-10T12:49:13;99765.00;;;18.70
24639;BMP180;1641;51.306;12.384;2023-05-10T12:51:38;99766.00;;;18.20
24639;BMP180;1641;51.306;12.384;2023-05-10T12:54:09;99773.00;;;17.90
24639;BMP180;1641;51.306;12.384;2023-05-10T12:56:34;99773.00;;;18.30
24639;BMP180;1641;51.306;12.384;2023-05-10T12:59:00;99772.00;;;18.50
24639;BMP180;1641;51.306;12.384;2023-05-10T13:01:25;99771.00;;;18.80
24639;BMP180;1641;51.306;12.384;2023-05-10T13:03:50;99768.00;;;18.20
24639;BMP180;1641;51.306;12.384;2023-05-10T13:06:22;99768.00;;;18.60
24639;BMP180;1641;51.306;12.384;2023-05-10T13:08:50;99770.00;;;18.70
24639;BMP180;1641;51.306;12.384;2023-05-10T13:11:16;99768.00;;;19.30
24639;BMP180;1641;51.306;12.384;2023-05-10T13:13:42;99768.00;;;19.80
24639;BMP180;1641;51.306;12.384;2023-05-10T13:16:07;99771.00;;;19.80
24639;BMP180;1641;51.306;12.384;2023-05-10T13:18:32;99773.00;;;20.00
24639;BMP180;1641;51.306;12.384;2023-05-10T13:20:58;99772.00;;;19.90
24639;BMP180;1641;51.306;12.384;2023-05-10T13:23:23;99773.00;;;19.80
24639;BMP180;1641;51.306;12.384;2023-05-10T13:25:48;99766.00;;;19.90
24639;BMP180;1641;51.306;12.384;2023-05-10T13:28:26;99772.00;;;19.70
24639;BMP180;1641;51.306;12.384;2023-05-10T13:30:51;99771.00;;;19.80
24639;BMP180;1641;51.306;12.384;2023-05-10T13:33:16;99725.00;;;19.90
24639;BMP180;1641;51.306;12.384;2023-05-10T13:35:54;99741.00;;;20.00
24639;BMP180;1641;51.306;12.384;2023-05-10T13:38:19;99757.00;;;19.40
24639;BMP180;1641;51.306;12.384;2023-05-10T13:40:47;99773.00;;;19.00
24639;BMP180;1641;51.306;12.384;2023-05-10T13:43:13;99767.00;;;19.00
24639;BMP180;1641;51.306;12.384;2023-05-10T13:45:38;99765.00;;;18.50
24639;BMP180;1641;51.306;12.384;2023-05-10T13:48:04;99758.00;;;18.70
24639;BMP180;1641;51.306;12.384;2023-05-10T13:50:29;99772.00;;;19.20
24639;BMP180;1641;51.306;12.384;2023-05-10T13:52:55;99778.00;;;19.40
24639;BMP180;1641;51.306;12.384;2023-05-10T13:55:32;99769.00;;;19.60
24639;BMP180;1641;51.306;12.384;2023-05-10T13:57:58;99772.00;;;20.00
24639;BMP180;1641;51.306;12.384;2023-05-10T14:00:24;99769.00;;;20.20
24639;BMP180;1641;51.306;12.384;2023-05-10T14:02:49;99774.00;;;20.50
24639;BMP180;1641;51.306;12.384;2023-05-10T14:05:14;99772.00;;;20.40
24639;BMP180;1641;51.306;12.384;2023-05-10T14:07:39;99776.00;;;20.40
24639;BMP180;1641;51.306;12.384;2023-05-10T14:10:05;99765.00;;;19.90
24639;BMP180;1641;51.306;12.384;2023-05-10T14:12:31;99767.00;;;19.90
24639;BMP180;1641;51.306;12.384;2023-05-10T14:14:59;99768.00;;;20.00
24639;BMP180;1641;51.306;12.384;2023-05-10T14:17:24;99768.00;;;20.20
24639;BMP180;1641;51.306;12.384;2023-05-10T14:19:49;99779.00;;;20.60
24639;BMP180;1641;51.306;12.384;2023-05-10T14:22:15;99769.00;;;20.70
24639;BMP180;1641;51.306;12.384;2023-05-10T14:24:40;99769.00;;;20.30
24639;BMP180;1641;51.306;12.384;2023-05-10T14:27:08;99770.00;;;20.30
24639;BMP180;1641;51.306;12.384;2023-05-10T14:29:34;99764.00;;;20.00
24639;BMP180;1641;51.306;12.384;2023-05-10T14:31:59;99772.00;;;20.40